sensor_id;sensor_type;location;lat;lon;timestamp;pressure;altitude;pressure_sealevel;temperature;humidity
55733;BME280;41637;52.364;9.910;2023-05-19T00:00:07;102006.22;;;9.00;66.66
55733;BME280;41637;52.364;9.910;2023-05-19T00:02:35;102002.94;;;8.98;66.81
55733;BME280;41637;52.364;9.910;2023-05-19T00:05:05;102000.35;;;8.98;66.97
55733;BME280;41637;52.364;9.910;2023-05-19T00:07:34;102002.55;;;8.97;66.75
55733;BME280;41637;52.364;9.910;2023-05-19T00:10:04;101998.98;;;8.95;67.07
55733;BME280;41637;52.364;9.910;2023-05-19T00:12:32;101997.98;;;8.95;66.93
55733;BME280;41637;52.364;9.910;2023-05-19T00:15:00;102000.30;;;8.94;67.21
55733;BME280;41637;52.364;9.910;2023-05-19T00:17:26;102006.58;;;8.95;67.25
55733;BME280;41637;52.364;9.910;2023-05-19T00:19:54;102006.46;;;8.94;67.49
55733;BME280;41637;52.364;9.910;2023-05-19T00:22:21;102003.73;;;8.93;67.25
55733;BME280;41637;52.364;9.910;2023-05-19T00:24:48;102005.94;;;8.92;67.28
55733;BME280;41637;52.364;9.910;2023-05-19T00:27:15;102003.13;;;8.92;67.75
55733;BME280;41637;52.364;9.910;2023-05-19T00:29:42;102004.82;;;8.89;67.69
55733;BME280;41637;52.364;9.910;2023-05-19T00:32:09;101999.22;;;8.86;67.98
55733;BME280;41637;52.364;9.910;2023-05-19T00:34:37;102000.80;;;8.87;67.94
55733;BME280;41637;52.364;9.910;2023-05-19T00:37:04;101997.02;;;8.87;67.90
55733;BME280;41637;52.364;9.910;2023-05-19T00:39:31;101997.77;;;8.89;68.04
55733;BME280;41637;52.364;9.910;2023-05-19T00:41:58;101994.38;;;8.89;67.99
55733;BME280;41637;52.364;9.910;2023-05-19T00:44:25;101993.95;;;8.90;68.30
55733;BME280;41637;52.364;9.910;2023-05-19T00:46:53;101991.80;;;8.91;68.37
55733;BME280;41637;52.364;9.910;2023-05-19T00:49:20;101988.86;;;8.92;68.49
55733;BME280;41637;52.364;9.910;2023-05-19T00:51:48;101990.45;;;8.94;68.34
55733;BME280;41637;52.364;9.910;2023-05-19T00:54:17;101990.46;;;8.94;68.57
55733;BME280;41637;52.364;9.910;2023-05-19T00:56:44;101990.27;;;8.94;68.76
55733;BME280;41637;52.364;9.910;2023-05-19T00:59:11;101986.48;;;8.93;68.58
55733;BME280;41637;52.364;9.910;2023-05-19T01:01:39;101985.02;;;8.93;69.08
55733;BME280;41637;52.364;9.910;2023-05-19T01:04:06;101983.98;;;8.95;68.94
55733;BME280;41637;52.364;9.910;2023-05-19T01:06:35;101982.81;;;8.96;68.95
55733;BME280;41637;52.364;9.910;2023-05-19T01:09:04;101979.64;;;8.96;69.06
55733;BME280;41637;52.364;9.910;2023-05-19T01:11:31;101980.90;;;8.96;69.09
55733;BME280;41637;52.364;9.910;2023-05-19T01:13:58;101981.92;;;8.94;69.15
55733;BME280;41637;52.364;9.910;2023-05-19T01:16:35;101978.98;;;8.94;69.41
55733;BME280;41637;52.364;9.910;2023-05-19T01:19:18;101977.95;;;8.93;69.38
55733;BME280;41637;52.364;9.910;2023-05-19T01:30:25;101978.30;;;8.95;69.78
55733;BME280;41637;52.364;9.910;2023-05-19T01:32:56;101977.58;;;8.96;70.08
55733;BME280;41637;52.364;9.910;2023-05-19T01:35:24;101977.66;;;8.95;69.98
55733;BME280;41637;52.364;9.910;2023-05-19T01:37:56;101977.79;;;8.93;70.28
55733;BME280;41637;52.364;9.910;2023-05-19T01:40:24;101977.78;;;8.91;70.52
55733;BME280;41637;52.364;9.910;2023-05-19T01:42:53;101975.44;;;8.88;70.17
55733;BME280;41637;52.364;9.910;2023-05-19T01:45:23;101975.65;;;8.86;70.42
55733;BME280;41637;52.364;9.910;2023-05-19T01:47:56;101974.03;;;8.82;70.46
55733;BME280;41637;52.364;9.910;2023-05-19T01:50:24;101976.84;;;8.76;70.66
55733;BME280;41637;52.364;9.910;2023-05-19T01:52:51;101978.50;;;8.69;70.91
55733;BME280;41637;52.364;9.910;2023-05-19T01:55:19;101982.73;;;8.63;71.05
55733;BME280;41637;52.364;9.910;2023-05-19T01:58:17;101985.91;;;8.58;71.40
55733;BME280;41637;52.364;9.910;2023-05-19T02:12:02;101990.21;;;8.30;72.06
55733;BME280;41637;52.364;9.910;2023-05-19T02:14:33;101986.50;;;8.26;72.19
55733;BME280;41637;52.364;9.910;2023-05-19T02:17:03;101988.05;;;8.22;72.30
55733;BME280;41637;52.364;9.910;2023-05-19T02:19:34;101987.86;;;8.18;72.64
55733;BME280;41637;52.364;9.910;2023-05-19T02:22:01;101989.23;;;8.13;72.89
55733;BME280;41637;52.364;9.910;2023-05-19T02:24:28;101987.88;;;8.09;72.64
55733;BME280;41637;52.364;9.910;2023-05-19T02:26:55;101987.78;;;8.04;73.43
55733;BME280;41637;52.364;9.910;2023-05-19T02:29:22;101988.85;;;7.99;73.60
55733;BME280;41637;52.364;9.910;2023-05-19T02:31:49;101987.84;;;7.94;73.25
55733;BME280;41637;52.364;9.910;2023-05-19T02:34:16;101987.53;;;7.92;73.63
55733;BME280;41637;52.364;9.910;2023-05-19T02:36:44;101986.17;;;7.89;73.87
55733;BME280;41637;52.364;9.910;2023-05-19T02:39:11;101985.00;;;7.86;74.54
55733;BME280;41637;52.364;9.910;2023-05-19T02:41:38;101981.92;;;7.83;74.39
55733;BME280;41637;52.364;9.910;2023-05-19T02:44:05;101978.03;;;7.79;74.64
55733;BME280;41637;52.364;9.910;2023-05-19T02:46:33;101980.18;;;7.76;74.85
55733;BME280;41637;52.364;9.910;2023-05-19T02:49:00;101976.95;;;7.72;75.16
55733;BME280;41637;52.364;9.910;2023-05-19T02:51:27;101977.80;;;7.71;75.58
55733;BME280;41637;52.364;9.910;2023-05-19T02:53:54;101976.55;;;7.71;75.40
55733;BME280;41637;52.364;9.910;2023-05-19T02:56:20;101972.19;;;7.70;75.61
55733;BME280;41637;52.364;9.910;2023-05-19T02:58:48;101973.32;;;7.67;75.83
55733;BME280;41637;52.364;9.910;2023-05-19T03:01:15;101970.66;;;7.65;76.26
55733;BME280;41637;52.364;9.910;2023-05-19T03:03:42;101971.66;;;7.64;76.51
55733;BME280;41637;52.364;9.910;2023-05-19T03:06:09;101969.40;;;7.64;76.46
55733;BME280;41637;52.364;9.910;2023-05-19T03:08:36;101966.77;;;7.63;76.67
55733;BME280;41637;52.364;9.910;2023-05-19T03:11:07;101968.57;;;7.63;76.92
55733;BME280;41637;52.364;9.910;2023-05-19T03:13:34;101965.94;;;7.63;77.05
55733;BME280;41637;52.364;9.910;2023-05-19T03:16:01;101966.45;;;7.61;77.02
55733;BME280;41637;52.364;9.910;2023-05-19T03:18:29;101967.96;;;7.57;77.02
55733;BME280;41637;52.364;9.910;2023-05-19T03:20:56;101967.38;;;7.54;77.52
55733;BME280;41637;52.364;9.910;2023-05-19T03:23:23;101965.95;;;7.52;77.57
55733;BME280;41637;52.364;9.910;2023-05-19T03:25:50;101962.84;;;7.51;77.71
55733;BME280;41637;52.364;9.910;2023-05-19T03:28:19;101964.27;;;7.51;77.83
55733;BME280;41637;52.364;9.910;2023-05-19T03:30:47;101960.78;;;7.50;77.85
55733;BME280;41637;52.364;9.910;2023-05-19T03:33:15;101963.33;;;7.49;78.05
55733;BME280;41637;52.364;9.910;2023-05-19T03:35:43;101966.38;;;7.49;78.19
55733;BME280;41637;52.364;9.910;2023-05-19T03:38:09;101966.98;;;7.48;78.13
55733;BME280;41637;52.364;9.910;2023-05-19T03:40:37;101968.45;;;7.47;78.41
55733;BME280;41637;52.364;9.910;2023-05-19T03:43:04;101963.07;;;7.46;78.35
55733;BME280;41637;52.364;9.910;2023-05-19T03:45:31;101963.73;;;7.44;78.66
55733;BME280;41637;52.364;9.910;2023-05-19T03:47:58;101966.98;;;7.43;78.96
55733;BME280;41637;52.364;9.910;2023-05-19T03:50:25;101968.14;;;7.42;78.98
55733;BME280;41637;52.364;9.910;2023-05-19T03:52:54;101968.56;;;7.39;79.35
55733;BME280;41637;52.364;9.910;2023-05-19T03:55:21;101967.94;;;7.38;79.24
55733;BME280;41637;52.364;9.910;2023-05-19T03:57:48;101964.83;;;7.35;79.46
55733;BME280;41637;52.364;9.910;2023-05-19T04:00:15;101962.69;;;7.33;79.96
55733;BME280;41637;52.364;9.910;2023-05-19T04:02:43;101963.45;;;7.32;80.39
55733;BME280;41637;52.364;9.910;2023-05-19T04:05:10;101965.28;;;7.31;80.43
55733;BME280;41637;52.364;9.910;2023-05-19T04:07:37;101965.81;;;7.33;80.47
55733;BME280;41637;52.364;9.910;2023-05-19T04:10:04;101966.45;;;7.37;80.99
55733;BME280;41637;52.364;9.910;2023-05-19T04:12:31;101967.23;;;7.40;81.06
55733;BME280;41637;52.364;9.910;2023-05-19T04:14:59;101964.42;;;7.45;81.11
55733;BME280;41637;52.364;9.910;2023-05-19T04:17:26;101962.08;;;7.49;80.92
55733;BME280;41637;52.364;9.910;2023-05-19T04:19:53;101962.33;;;7.55;80.97
55733;BME280;41637;52.364;9.910;2023-05-19T04:22:21;101965.10;;;7.60;81.21
55733;BME280;41637;52.364;9.910;2023-05-19T04:24:48;101970.81;;;7.66;80.84
55733;BME280;41637;52.364;9.910;2023-05-19T04:27:17;101966.79;;;7.72;81.22
55733;BME280;41637;52.364;9.910;2023-05-19T04:29:44;101972.92;;;7.79;81.07
55733;BME280;41637;52.364;9.910;2023-05-19T04:32:13;101971.33;;;7.85;80.98
55733;BME280;41637;52.364;9.910;2023-05-19T04:34:43;101977.39;;;7.93;80.74
55733;BME280;41637;52.364;9.910;2023-05-19T04:37:12;101977.53;;;8.00;80.85
55733;BME280;41637;52.364;9.910;2023-05-19T04:39:39;101974.98;;;8.07;80.50
55733;BME280;41637;52.364;9.910;2023-05-19T04:42:11;101973.34;;;8.14;80.71
55733;BME280;41637;52.364;9.910;2023-05-19T04:44:40;101974.95;;;8.20;80.22
55733;BME280;41637;52.364;9.910;2023-05-19T04:47:07;101974.57;;;8.27;80.48
55733;BME280;41637;52.364;9.910;2023-05-19T04:49:35;101970.35;;;8.33;80.19
55733;BME280;41637;52.364;9.910;2023-05-19T04:52:09;101975.29;;;8.40;80.24
55733;BME280;41637;52.364;9.910;2023-05-19T04:54:37;101975.61;;;8.44;80.20
55733;BME280;41637;52.364;9.910;2023-05-19T04:57:06;101975.77;;;8.51;80.18
55733;BME280;41637;52.364;9.910;2023-05-19T04:59:33;101975.02;;;8.58;80.19
55733;BME280;41637;52.364;9.910;2023-05-19T05:02:00;101978.96;;;8.65;79.83
55733;BME280;41637;52.364;9.910;2023-05-19T05:04:27;101979.34;;;8.73;79.67
55733;BME280;41637;52.364;9.910;2023-05-19T05:06:55;101976.45;;;8.80;79.51
55733;BME280;41637;52.364;9.910;2023-05-19T05:09:22;101975.77;;;8.90;79.68
55733;BME280;41637;52.364;9.910;2023-05-19T05:11:49;101976.40;;;9.00;79.48
55733;BME280;41637;52.364;9.910;2023-05-19T05:14:17;101976.41;;;9.10;79.16
55733;BME280;41637;52.364;9.910;2023-05-19T05:16:44;101973.58;;;9.20;79.40
55733;BME280;41637;52.364;9.910;2023-05-19T05:19:12;101974.17;;;9.31;78.89
55733;BME280;41637;52.364;9.910;2023-05-19T05:21:39;101975.25;;;9.39;78.62
55733;BME280;41637;52.364;9.910;2023-05-19T05:24:08;101974.17;;;9.49;78.43
55733;BME280;41637;52.364;9.910;2023-05-19T05:26:35;101973.04;;;9.58;78.22
55733;BME280;41637;52.364;9.910;2023-05-19T05:29:02;101970.81;;;9.67;78.16
55733;BME280;41637;52.364;9.910;2023-05-19T05:31:29;101969.31;;;9.78;78.17
55733;BME280;41637;52.364;9.910;2023-05-19T05:33:57;101970.41;;;9.87;77.64
55733;BME280;41637;52.364;9.910;2023-05-19T05:36:24;101966.33;;;9.95;77.56
55733;BME280;41637;52.364;9.910;2023-05-19T05:38:51;101966.51;;;10.03;77.50
55733;BME280;41637;52.364;9.910;2023-05-19T05:41:18;101962.30;;;10.14;77.35
55733;BME280;41637;52.364;9.910;2023-05-19T05:43:45;101958.15;;;10.21;76.94
55733;BME280;41637;52.364;9.910;2023-05-19T05:46:12;101955.70;;;10.26;76.66
55733;BME280;41637;52.364;9.910;2023-05-19T05:48:39;101956.30;;;10.37;76.43
55733;BME280;41637;52.364;9.910;2023-05-19T05:51:08;101957.70;;;10.42;75.86
55733;BME280;41637;52.364;9.910;2023-05-19T05:53:40;101956.80;;;10.44;75.64
55733;BME280;41637;52.364;9.910;2023-05-19T05:56:10;101960.30;;;10.48;75.56
55733;BME280;41637;52.364;9.910;2023-05-19T05:58:38;101960.34;;;10.59;75.52
55733;BME280;41637;52.364;9.910;2023-05-19T06:01:06;101964.05;;;10.74;75.35
55733;BME280;41637;52.364;9.910;2023-05-19T06:03:41;101966.84;;;10.87;75.02
55733;BME280;41637;52.364;9.910;2023-05-19T06:06:09;101971.80;;;11.04;74.72
55733;BME280;41637;52.364;9.910;2023-05-19T06:08:36;101973.11;;;11.18;73.74
55733;BME280;41637;52.364;9.910;2023-05-19T06:11:03;101975.55;;;11.35;73.50
55733;BME280;41637;52.364;9.910;2023-05-19T06:13:37;101977.11;;;11.48;72.47
55733;BME280;41637;52.364;9.910;2023-05-19T06:16:04;101982.00;;;11.60;72.21
55733;BME280;41637;52.364;9.910;2023-05-19T06:18:31;101983.66;;;11.75;71.52
55733;BME280;41637;52.364;9.910;2023-05-19T06:20:59;101981.65;;;11.89;71.18
55733;BME280;41637;52.364;9.910;2023-05-19T06:23:27;101986.52;;;12.04;70.47
55733;BME280;41637;52.364;9.910;2023-05-19T06:25:54;101983.94;;;12.21;69.85
55733;BME280;41637;52.364;9.910;2023-05-19T06:28:21;101983.33;;;12.36;69.03
55733;BME280;41637;52.364;9.910;2023-05-19T06:30:48;101973.41;;;12.47;67.91
55733;BME280;41637;52.364;9.910;2023-05-19T06:33:15;101977.43;;;12.59;67.42
55733;BME280;41637;52.364;9.910;2023-05-19T06:35:42;101973.26;;;12.71;66.92
55733;BME280;41637;52.364;9.910;2023-05-19T06:38:09;101975.91;;;12.79;66.71
55733;BME280;41637;52.364;9.910;2023-05-19T06:40:36;101975.31;;;12.85;65.64
55733;BME280;41637;52.364;9.910;2023-05-19T06:43:03;101973.73;;;12.89;65.12
55733;BME280;41637;52.364;9.910;2023-05-19T06:45:30;101972.27;;;12.96;65.19
55733;BME280;41637;52.364;9.910;2023-05-19T06:47:57;101973.08;;;13.05;65.23
55733;BME280;41637;52.364;9.910;2023-05-19T06:50:24;101973.71;;;13.13;64.90
55733;BME280;41637;52.364;9.910;2023-05-19T06:52:51;101973.80;;;13.16;64.28
55733;BME280;41637;52.364;9.910;2023-05-19T06:55:18;101975.30;;;13.17;64.07
55733;BME280;41637;52.364;9.910;2023-05-19T06:57:46;101977.48;;;13.26;64.11
55733;BME280;41637;52.364;9.910;2023-05-19T07:00:13;101972.36;;;13.36;63.99
55733;BME280;41637;52.364;9.910;2023-05-19T07:02:44;101975.59;;;13.37;62.85
55733;BME280;41637;52.364;9.910;2023-05-19T07:05:11;101972.21;;;13.38;63.05
55733;BME280;41637;52.364;9.910;2023-05-19T07:07:38;101973.71;;;13.42;62.86
55733;BME280;41637;52.364;9.910;2023-05-19T07:10:06;101974.34;;;13.51;62.95
55733;BME280;41637;52.364;9.910;2023-05-19T07:12:33;101978.65;;;13.62;62.43
55733;BME280;41637;52.364;9.910;2023-05-19T07:15:00;101974.54;;;13.73;62.16
55733;BME280;41637;52.364;9.910;2023-05-19T07:17:27;101977.70;;;13.78;61.93
55733;BME280;41637;52.364;9.910;2023-05-19T07:19:54;101974.54;;;13.88;62.11
55733;BME280;41637;52.364;9.910;2023-05-19T07:22:21;101973.23;;;13.93;61.53
55733;BME280;41637;52.364;9.910;2023-05-19T07:24:49;101972.41;;;13.99;61.58
55733;BME280;41637;52.364;9.910;2023-05-19T07:27:17;101972.41;;;14.11;61.51
55733;BME280;41637;52.364;9.910;2023-05-19T07:29:43;101973.02;;;14.15;60.74
55733;BME280;41637;52.364;9.910;2023-05-19T07:32:10;101967.98;;;14.22;60.77
55733;BME280;41637;52.364;9.910;2023-05-19T07:34:37;101968.30;;;14.31;60.17
55733;BME280;41637;52.364;9.910;2023-05-19T07:37:04;101962.71;;;14.38;59.58
55733;BME280;41637;52.364;9.910;2023-05-19T07:39:32;101962.36;;;14.49;59.23
55733;BME280;41637;52.364;9.910;2023-05-19T07:42:07;101960.99;;;14.60;59.65
55733;BME280;41637;52.364;9.910;2023-05-19T07:44:34;101958.86;;;14.67;58.35
55733;BME280;41637;52.364;9.910;2023-05-19T07:47:01;101957.47;;;14.72;58.61
55733;BME280;41637;52.364;9.910;2023-05-19T07:49:28;101958.30;;;14.84;58.19
55733;BME280;41637;52.364;9.910;2023-05-19T07:51:55;101959.80;;;14.94;57.57
55733;BME280;41637;52.364;9.910;2023-05-19T07:54:22;101958.48;;;15.06;57.45
55733;BME280;41637;52.364;9.910;2023-05-19T07:56:49;101959.66;;;15.20;57.39
55733;BME280;41637;52.364;9.910;2023-05-19T07:59:17;101958.34;;;15.25;56.32
55733;BME280;41637;52.364;9.910;2023-05-19T08:01:44;101956.65;;;15.38;56.59
55733;BME280;41637;52.364;9.910;2023-05-19T08:04:11;101956.25;;;15.51;55.82
55733;BME280;41637;52.364;9.910;2023-05-19T08:06:40;101956.66;;;15.61;55.42
55733;BME280;41637;52.364;9.910;2023-05-19T08:09:08;101954.16;;;15.72;55.34
55733;BME280;41637;52.364;9.910;2023-05-19T08:11:35;101954.97;;;15.82;55.34
55733;BME280;41637;52.364;9.910;2023-05-19T08:14:02;101953.11;;;15.92;54.61
55733;BME280;41637;52.364;9.910;2023-05-19T08:16:29;101954.41;;;16.05;54.23
55733;BME280;41637;52.364;9.910;2023-05-19T08:18:56;101948.50;;;16.16;53.48
55733;BME280;41637;52.364;9.910;2023-05-19T08:21:23;101946.85;;;16.24;53.43
55733;BME280;41637;52.364;9.910;2023-05-19T08:23:50;101947.59;;;16.38;53.90
55733;BME280;41637;52.364;9.910;2023-05-19T08:26:17;101941.91;;;16.58;53.17
55733;BME280;41637;52.364;9.910;2023-05-19T08:28:44;101939.04;;;16.78;53.04
55733;BME280;41637;52.364;9.910;2023-05-19T08:31:11;101939.74;;;16.98;52.63
55733;BME280;41637;52.364;9.910;2023-05-19T08:33:38;101942.27;;;17.16;51.32
55733;BME280;41637;52.364;9.910;2023-05-19T08:36:05;101939.35;;;17.28;50.94
55733;BME280;41637;52.364;9.910;2023-05-19T08:38:32;101942.09;;;17.41;50.30
55733;BME280;41637;52.364;9.910;2023-05-19T08:40:59;101937.77;;;17.50;49.69
55733;BME280;41637;52.364;9.910;2023-05-19T08:43:25;101938.92;;;17.58;49.87
55733;BME280;41637;52.364;9.910;2023-05-19T08:45:53;101930.86;;;17.65;49.20
55733;BME280;41637;52.364;9.910;2023-05-19T08:48:21;101930.52;;;17.68;48.87
55733;BME280;41637;52.364;9.910;2023-05-19T08:50:59;101928.78;;;17.80;48.93
55733;BME280;41637;52.364;9.910;2023-05-19T08:53:36;101925.35;;;17.97;48.36
55733;BME280;41637;52.364;9.910;2023-05-19T08:56:19;101923.38;;;18.06;48.32
55733;BME280;41637;52.364;9.910;2023-05-19T08:58:48;101922.23;;;18.20;47.72
55733;BME280;41637;52.364;9.910;2023-05-19T09:01:16;101916.33;;;18.26;47.19
55733;BME280;41637;52.364;9.910;2023-05-19T09:03:44;101907.66;;;18.28;47.39
55733;BME280;41637;52.364;9.910;2023-05-19T09:06:12;101908.48;;;18.39;46.91
55733;BME280;41637;52.364;9.910;2023-05-19T09:08:39;101908.79;;;18.56;46.27
55733;BME280;41637;52.364;9.910;2023-05-19T09:11:08;101909.73;;;18.71;46.56
55733;BME280;41637;52.364;9.910;2023-05-19T09:13:35;101910.15;;;18.86;46.40
55733;BME280;41637;52.364;9.910;2023-05-19T09:16:02;101907.96;;;19.04;45.13
55733;BME280;41637;52.364;9.910;2023-05-19T09:18:29;101905.58;;;19.10;44.50
55733;BME280;41637;52.364;9.910;2023-05-19T09:20:58;101906.92;;;19.19;44.47
55733;BME280;41637;52.364;9.910;2023-05-19T09:23:30;101909.48;;;19.28;44.29
55733;BME280;41637;52.364;9.910;2023-05-19T09:26:04;101903.17;;;19.37;43.23
55733;BME280;41637;52.364;9.910;2023-05-19T09:28:35;101904.70;;;19.40;42.27
55733;BME280;41637;52.364;9.910;2023-05-19T09:31:06;101902.52;;;19.44;42.85
55733;BME280;41637;52.364;9.910;2023-05-19T09:33:38;101902.73;;;19.54;43.12
55733;BME280;41637;52.364;9.910;2023-05-19T09:36:07;101894.15;;;19.68;43.08
55733;BME280;41637;52.364;9.910;2023-05-19T09:38:35;101892.44;;;19.90;43.07
55733;BME280;41637;52.364;9.910;2023-05-19T09:41:03;101894.16;;;20.06;42.24
55733;BME280;41637;52.364;9.910;2023-05-19T09:43:31;101893.65;;;20.20;41.60
55733;BME280;41637;52.364;9.910;2023-05-19T09:46:07;101884.52;;;20.26;40.51
55733;BME280;41637;52.364;9.910;2023-05-19T09:48:37;101880.30;;;20.28;40.68
55733;BME280;41637;52.364;9.910;2023-05-19T09:51:06;101879.27;;;20.34;40.70
55733;BME280;41637;52.364;9.910;2023-05-19T09:53:33;101878.95;;;20.32;40.07
55733;BME280;41637;52.364;9.910;2023-05-19T09:56:01;101874.73;;;20.28;40.78
55733;BME280;41637;52.364;9.910;2023-05-19T09:58:33;101870.02;;;20.21;40.55
55733;BME280;41637;52.364;9.910;2023-05-19T10:01:00;101866.52;;;20.14;40.52
55733;BME280;41637;52.364;9.910;2023-05-19T10:03:29;101856.93;;;20.23;40.31
55733;BME280;41637;52.364;9.910;2023-05-19T10:06:00;101861.40;;;20.37;40.27
55733;BME280;41637;52.364;9.910;2023-05-19T10:08:28;101859.99;;;20.38;39.97
55733;BME280;41637;52.364;9.910;2023-05-19T10:10:56;101861.04;;;20.34;39.72
55733;BME280;41637;52.364;9.910;2023-05-19T10:13:24;101857.85;;;20.46;39.23
55733;BME280;41637;52.364;9.910;2023-05-19T10:15:52;101855.33;;;20.66;39.12
55733;BME280;41637;52.364;9.910;2023-05-19T10:18:25;101853.08;;;20.86;38.20
55733;BME280;41637;52.364;9.910;2023-05-19T10:20:53;101843.16;;;21.08;37.71
55733;BME280;41637;52.364;9.910;2023-05-19T10:23:24;101840.91;;;21.34;37.41
55733;BME280;41637;52.364;9.910;2023-05-19T10:25:54;101833.59;;;21.61;36.93
55733;BME280;41637;52.364;9.910;2023-05-19T10:28:23;101832.59;;;21.84;36.81
55733;BME280;41637;52.364;9.910;2023-05-19T10:30:55;101830.36;;;22.09;37.05
55733;BME280;41637;52.364;9.910;2023-05-19T10:33:46;101829.52;;;22.22;34.60
55733;BME280;41637;52.364;9.910;2023-05-19T10:36:42;101829.11;;;22.45;34.13
55733;BME280;41637;52.364;9.910;2023-05-19T10:39:21;101830.52;;;22.66;33.71
55733;BME280;41637;52.364;9.910;2023-05-19T10:42:15;101828.55;;;22.63;33.37
55733;BME280;41637;52.364;9.910;2023-05-19T10:47:22;101820.80;;;22.82;32.65
55733;BME280;41637;52.364;9.910;2023-05-19T10:49:51;101810.88;;;22.90;32.03
55733;BME280;41637;52.364;9.910;2023-05-19T10:52:20;101810.54;;;23.03;31.80
55733;BME280;41637;52.364;9.910;2023-05-19T10:54:47;101806.39;;;23.08;31.20
55733;BME280;41637;52.364;9.910;2023-05-19T10:57:15;101809.46;;;22.99;31.44
55733;BME280;41637;52.364;9.910;2023-05-19T10:59:42;101808.93;;;22.87;31.39
55733;BME280;41637;52.364;9.910;2023-05-19T11:05:10;101804.93;;;23.29;31.63
55733;BME280;41637;52.364;9.910;2023-05-19T11:07:43;101801.73;;;23.63;31.69
55733;BME280;41637;52.364;9.910;2023-05-19T11:10:10;101800.60;;;23.93;31.48
55733;BME280;41637;52.364;9.910;2023-05-19T11:12:42;101795.77;;;24.15;30.25
55733;BME280;41637;52.364;9.910;2023-05-19T11:15:12;101795.66;;;24.29;29.15
55733;BME280;41637;52.364;9.910;2023-05-19T11:17:41;101795.13;;;24.24;29.12
55733;BME280;41637;52.364;9.910;2023-05-19T11:20:19;101807.88;;;23.86;28.74
55733;BME280;41637;52.364;9.910;2023-05-19T11:25:44;101803.66;;;23.84;29.30
55733;BME280;41637;52.364;9.910;2023-05-19T11:28:22;101801.11;;;23.86;29.08
55733;BME280;41637;52.364;9.910;2023-05-19T11:30:55;101799.55;;;23.96;29.33
55733;BME280;41637;52.364;9.910;2023-05-19T11:33:24;101788.36;;;24.12;29.16
55733;BME280;41637;52.364;9.910;2023-05-19T11:35:54;101791.27;;;24.34;29.74
55733;BME280;41637;52.364;9.910;2023-05-19T11:38:26;101788.41;;;24.32;28.85
55733;BME280;41637;52.364;9.910;2023-05-19T11:40:54;101786.98;;;24.15;29.70
55733;BME280;41637;52.364;9.910;2023-05-19T11:43:22;101789.99;;;24.30;30.01
55733;BME280;41637;52.364;9.910;2023-05-19T11:45:50;101794.05;;;24.47;28.48
55733;BME280;41637;52.364;9.910;2023-05-19T11:48:20;101792.23;;;24.55;28.36
55733;BME280;41637;52.364;9.910;2023-05-19T11:50:47;101792.02;;;24.59;27.95
55733;BME280;41637;52.364;9.910;2023-05-19T11:53:14;101788.40;;;24.60;27.81
55733;BME280;41637;52.364;9.910;2023-05-19T11:55:45;101785.81;;;24.67;28.25
55733;BME280;41637;52.364;9.910;2023-05-19T11:58:14;101778.48;;;24.67;27.58
55733;BME280;41637;52.364;9.910;2023-05-19T12:00:42;101775.69;;;24.87;27.49
55733;BME280;41637;52.364;9.910;2023-05-19T12:03:11;101775.86;;;25.21;27.08
55733;BME280;41637;52.364;9.910;2023-05-19T12:05:42;101772.30;;;25.72;26.98
55733;BME280;41637;52.364;9.910;2023-05-19T12:08:11;101771.40;;;26.23;26.42
55733;BME280;41637;52.364;9.910;2023-05-19T12:10:39;101773.98;;;26.67;26.21
55733;BME280;41637;52.364;9.910;2023-05-19T12:13:06;101775.63;;;26.45;26.28
55733;BME280;41637;52.364;9.910;2023-05-19T12:15:36;101777.19;;;26.07;26.48
55733;BME280;41637;52.364;9.910;2023-05-19T12:18:04;101773.96;;;25.72;26.36
55733;BME280;41637;52.364;9.910;2023-05-19T12:20:32;101773.80;;;25.91;26.32
55733;BME280;41637;52.364;9.910;2023-05-19T12:23:02;101770.05;;;26.48;26.12
55733;BME280;41637;52.364;9.910;2023-05-19T12:25:29;101764.08;;;27.03;25.20
55733;BME280;41637;52.364;9.910;2023-05-19T12:28:01;101762.33;;;27.61;24.65
55733;BME280;41637;52.364;9.910;2023-05-19T12:30:31;101760.30;;;28.09;23.73
55733;BME280;41637;52.364;9.910;2023-05-19T12:33:00;101758.55;;;28.42;23.28
55733;BME280;41637;52.364;9.910;2023-05-19T12:35:31;101756.48;;;28.57;22.82
55733;BME280;41637;52.364;9.910;2023-05-19T12:38:03;101748.16;;;28.88;22.28
55733;BME280;41637;52.364;9.910;2023-05-19T12:40:32;101748.88;;;29.16;22.26
55733;BME280;41637;52.364;9.910;2023-05-19T12:43:01;101745.92;;;29.60;21.69
55733;BME280;41637;52.364;9.910;2023-05-19T12:45:35;101748.02;;;29.57;22.00
55733;BME280;41637;52.364;9.910;2023-05-19T12:48:10;101746.45;;;29.43;21.47
55733;BME280;41637;52.364;9.910;2023-05-19T12:50:37;101742.10;;;29.78;21.02
55733;BME280;41637;52.364;9.910;2023-05-19T12:53:07;101738.42;;;30.81;20.64
55733;BME280;41637;52.364;9.910;2023-05-19T12:55:42;101739.66;;;32.01;19.15
55733;BME280;41637;52.364;9.910;2023-05-19T12:58:11;101735.31;;;32.84;18.42
55733;BME280;41637;52.364;9.910;2023-05-19T13:00:42;101738.64;;;33.66;18.63
55733;BME280;41637;52.364;9.910;2023-05-19T13:03:18;101737.83;;;34.74;17.60
55733;BME280;41637;52.364;9.910;2023-05-19T13:05:48;101740.79;;;35.68;17.05
55733;BME280;41637;52.364;9.910;2023-05-19T13:08:20;101738.22;;;35.64;16.63
55733;BME280;41637;52.364;9.910;2023-05-19T13:10:47;101740.39;;;34.22;17.43
55733;BME280;41637;52.364;9.910;2023-05-19T13:13:17;101740.21;;;32.86;18.36
55733;BME280;41637;52.364;9.910;2023-05-19T13:15:45;101736.63;;;32.04;19.46
55733;BME280;41637;52.364;9.910;2023-05-19T13:18:15;101736.86;;;32.65;18.70
55733;BME280;41637;52.364;9.910;2023-05-19T13:20:43;101739.19;;;32.26;18.46
55733;BME280;41637;52.364;9.910;2023-05-19T13:23:10;101739.16;;;31.41;19.38
55733;BME280;41637;52.364;9.910;2023-05-19T13:25:38;101731.78;;;30.68;20.14
55733;BME280;41637;52.364;9.910;2023-05-19T13:28:05;101729.70;;;30.03;20.62
55733;BME280;41637;52.364;9.910;2023-05-19T13:30:36;101729.30;;;30.62;20.69